sensor_id;sensor_type;location;lat;lon;timestamp;temperature;humidity
14604;DHT22;7388;51.078;13.740;2022-07-21T00:01:11;28.50;29.60
14604;DHT22;7388;51.078;13.740;2022-07-21T00:03:55;28.50;29.60
14604;DHT22;7388;51.078;13.740;2022-07-21T00:06:48;28.50;30.00
14604;DHT22;7388;51.078;13.740;2022-07-21T00:09:15;28.50;30.00
14604;DHT22;7388;51.078;13.740;2022-07-21T00:11:41;28.30;30.60
14604;DHT22;7388;51.078;13.740;2022-07-21T00:14:08;28.30;30.90
14604;DHT22;7388;51.078;13.740;2022-07-21T00:16:35;28.20;30.80
14604;DHT22;7388;51.078;13.740;2022-07-21T00:19:01;28.20;30.80
14604;DHT22;7388;51.078;13.740;2022-07-21T00:21:28;28.10;30.80
14604;DHT22;7388;51.078;13.740;2022-07-21T00:23:53;28.10;30.90
14604;DHT22;7388;51.078;13.740;2022-07-21T00:26:19;28.10;31.30
14604;DHT22;7388;51.078;13.740;2022-07-21T00:28:45;28.10;31.20
14604;DHT22;7388;51.078;13.740;2022-07-21T00:31:11;28.00;31.40
14604;DHT22;7388;51.078;13.740;2022-07-21T00:33:37;28.00;31.40
14604;DHT22;7388;51.078;13.740;2022-07-21T00:36:03;27.90;30.80
14604;DHT22;7388;51.078;13.740;2022-07-21T00:38:28;27.90;30.80
14604;DHT22;7388;51.078;13.740;2022-07-21T00:40:55;27.90;30.80
14604;DHT22;7388;51.078;13.740;2022-07-21T00:43:21;27.90;30.90
14604;DHT22;7388;51.078;13.740;2022-07-21T00:45:47;27.90;30.70
14604;DHT22;7388;51.078;13.740;2022-07-21T00:48:12;27.80;30.90
14604;DHT22;7388;51.078;13.740;2022-07-21T00:50:39;27.90;31.00
14604;DHT22;7388;51.078;13.740;2022-07-21T00:53:05;27.80;31.00
14604;DHT22;7388;51.078;13.740;2022-07-21T00:55:31;27.80;31.20
14604;DHT22;7388;51.078;13.740;2022-07-21T00:57:57;27.70;31.10
14604;DHT22;7388;51.078;13.740;2022-07-21T01:00:27;27.70;31.50
14604;DHT22;7388;51.078;13.740;2022-07-21T01:02:54;27.70;31.40
14604;DHT22;7388;51.078;13.740;2022-07-21T01:05:21;27.70;31.30
14604;DHT22;7388;51.078;13.740;2022-07-21T01:07:50;27.60;31.60
14604;DHT22;7388;51.078;13.740;2022-07-21T01:10:17;27.60;31.70
14604;DHT22;7388;51.078;13.740;2022-07-21T01:12:45;27.60;32.00
14604;DHT22;7388;51.078;13.740;2022-07-21T01:15:12;27.50;32.40
14604;DHT22;7388;51.078;13.740;2022-07-21T01:17:38;27.40;32.00
14604;DHT22;7388;51.078;13.740;2022-07-21T01:20:06;27.30;32.10
14604;DHT22;7388;51.078;13.740;2022-07-21T01:22:35;27.30;32.20
14604;DHT22;7388;51.078;13.740;2022-07-21T01:25:01;27.30;32.50
14604;DHT22;7388;51.078;13.740;2022-07-21T01:27:27;27.30;32.30
14604;DHT22;7388;51.078;13.740;2022-07-21T01:29:56;27.20;32.70
14604;DHT22;7388;51.078;13.740;2022-07-21T01:32:22;27.20;32.40
14604;DHT22;7388;51.078;13.740;2022-07-21T01:34:48;27.10;32.20
14604;DHT22;7388;51.078;13.740;2022-07-21T01:37:15;27.10;32.40
14604;DHT22;7388;51.078;13.740;2022-07-21T01:39:41;27.10;32.40
14604;DHT22;7388;51.078;13.740;2022-07-21T01:42:25;27.10;32.20
14604;DHT22;7388;51.078;13.740;2022-07-21T01:44:51;27.10;32.30
14604;DHT22;7388;51.078;13.740;2022-07-21T01:47:17;27.00;32.80
14604;DHT22;7388;51.078;13.740;2022-07-21T01:49:47;27.00;32.40
14604;DHT22;7388;51.078;13.740;2022-07-21T01:52:12;27.00;32.90
14604;DHT22;7388;51.078;13.740;2022-07-21T01:54:38;26.90;32.20
14604;DHT22;7388;51.078;13.740;2022-07-21T01:57:04;26.80;32.20
14604;DHT22;7388;51.078;13.740;2022-07-21T01:59:30;26.80;32.40
14604;DHT22;7388;51.078;13.740;2022-07-21T02:01:55;26.80;32.50
14604;DHT22;7388;51.078;13.740;2022-07-21T02:04:21;26.70;32.40
14604;DHT22;7388;51.078;13.740;2022-07-21T02:06:47;26.70;32.10
14604;DHT22;7388;51.078;13.740;2022-07-21T02:09:13;26.70;32.00
14604;DHT22;7388;51.078;13.740;2022-07-21T02:11:39;26.70;32.50
14604;DHT22;7388;51.078;13.740;2022-07-21T02:14:04;26.70;32.40
14604;DHT22;7388;51.078;13.740;2022-07-21T02:16:30;26.70;32.30
14604;DHT22;7388;51.078;13.740;2022-07-21T02:18:57;26.60;32.30
14604;DHT22;7388;51.078;13.740;2022-07-21T02:21:23;26.70;32.40
14604;DHT22;7388;51.078;13.740;2022-07-21T02:23:48;26.70;32.70
14604;DHT22;7388;51.078;13.740;2022-07-21T02:26:14;26.70;32.80
14604;DHT22;7388;51.078;13.740;2022-07-21T02:28:40;26.60;32.70
14604;DHT22;7388;51.078;13.740;2022-07-21T02:31:07;26.60;32.70
14604;DHT22;7388;51.078;13.740;2022-07-21T02:33:33;26.60;32.90
14604;DHT22;7388;51.078;13.740;2022-07-21T02:35:59;26.60;33.00
14604;DHT22;7388;51.078;13.740;2022-07-21T02:38:25;26.50;33.00
14604;DHT22;7388;51.078;13.740;2022-07-21T02:40:51;26.50;33.30
14604;DHT22;7388;51.078;13.740;2022-07-21T02:43:17;26.40;33.20
14604;DHT22;7388;51.078;13.740;2022-07-21T02:45:43;26.40;33.30
14604;DHT22;7388;51.078;13.740;2022-07-21T02:48:13;26.40;33.50
14604;DHT22;7388;51.078;13.740;2022-07-21T02:50:41;26.30;33.50
14604;DHT22;7388;51.078;13.740;2022-07-21T02:53:09;26.40;33.60
14604;DHT22;7388;51.078;13.740;2022-07-21T02:55:36;26.30;33.60
14604;DHT22;7388;51.078;13.740;2022-07-21T02:58:14;26.30;33.70
14604;DHT22;7388;51.078;13.740;2022-07-21T03:00:47;26.30;33.80
14604;DHT22;7388;51.078;13.740;2022-07-21T03:03:13;26.20;34.00
14604;DHT22;7388;51.078;13.740;2022-07-21T03:05:40;26.20;34.10
14604;DHT22;7388;51.078;13.740;2022-07-21T03:08:07;26.20;34.10
14604;DHT22;7388;51.078;13.740;2022-07-21T03:10:34;26.20;34.50
14604;DHT22;7388;51.078;13.740;2022-07-21T03:13:01;26.20;34.50
14604;DHT22;7388;51.078;13.740;2022-07-21T03:15:27;26.60;34.60
14604;DHT22;7388;51.078;13.740;2022-07-21T03:17:54;26.20;34.80
14604;DHT22;7388;51.078;13.740;2022-07-21T03:20:23;26.20;34.80
14604;DHT22;7388;51.078;13.740;2022-07-21T03:22:49;26.20;34.60
14604;DHT22;7388;51.078;13.740;2022-07-21T03:25:15;26.20;34.80
14604;DHT22;7388;51.078;13.740;2022-07-21T03:27:42;26.20;34.40
14604;DHT22;7388;51.078;13.740;2022-07-21T03:30:10;26.20;34.30
14604;DHT22;7388;51.078;13.740;2022-07-21T03:32:36;26.30;34.60
14604;DHT22;7388;51.078;13.740;2022-07-21T03:35:03;26.30;35.00
14604;DHT22;7388;51.078;13.740;2022-07-21T03:37:29;26.30;34.50
14604;DHT22;7388;51.078;13.740;2022-07-21T03:39:55;26.30;34.40
14604;DHT22;7388;51.078;13.740;2022-07-21T03:42:21;26.30;34.80
14604;DHT22;7388;51.078;13.740;2022-07-21T03:44:47;26.30;35.20
14604;DHT22;7388;51.078;13.740;2022-07-21T03:47:13;26.30;34.90
14604;DHT22;7388;51.078;13.740;2022-07-21T03:49:39;26.30;35.00
14604;DHT22;7388;51.078;13.740;2022-07-21T03:52:05;26.30;34.70
14604;DHT22;7388;51.078;13.740;2022-07-21T03:54:30;26.30;34.90
14604;DHT22;7388;51.078;13.740;2022-07-21T03:56:56;26.40;35.00
14604;DHT22;7388;51.078;13.740;2022-07-21T03:59:22;26.40;35.10
14604;DHT22;7388;51.078;13.740;2022-07-21T04:01:48;26.30;35.10
14604;DHT22;7388;51.078;13.740;2022-07-21T04:04:13;26.40;35.50
14604;DHT22;7388;51.078;13.740;2022-07-21T04:06:39;26.40;35.20
14604;DHT22;7388;51.078;13.740;2022-07-21T04:09:05;26.40;35.10
14604;DHT22;7388;51.078;13.740;2022-07-21T04:11:31;26.40;35.40
14604;DHT22;7388;51.078;13.740;2022-07-21T04:13:58;26.40;35.40
14604;DHT22;7388;51.078;13.740;2022-07-21T04:16:24;26.40;35.60
14604;DHT22;7388;51.078;13.740;2022-07-21T04:18:49;26.40;35.60
14604;DHT22;7388;51.078;13.740;2022-07-21T04:21:15;26.40;35.60
14604;DHT22;7388;51.078;13.740;2022-07-21T04:23:41;26.40;35.70
14604;DHT22;7388;51.078;13.740;2022-07-21T04:26:07;26.40;35.80
14604;DHT22;7388;51.078;13.740;2022-07-21T04:28:33;26.40;35.50
14604;DHT22;7388;51.078;13.740;2022-07-21T04:30:58;26.40;36.00
14604;DHT22;7388;51.078;13.740;2022-07-21T04:33:24;26.40;36.80
14604;DHT22;7388;51.078;13.740;2022-07-21T04:35:50;26.40;36.10
14604;DHT22;7388;51.078;13.740;2022-07-21T04:38:16;26.40;36.30
14604;DHT22;7388;51.078;13.740;2022-07-21T04:40:43;26.40;36.40
14604;DHT22;7388;51.078;13.740;2022-07-21T04:43:09;26.40;36.80
14604;DHT22;7388;51.078;13.740;2022-07-21T04:45:34;26.40;36.60
14604;DHT22;7388;51.078;13.740;2022-07-21T04:48:00;26.50;36.30
14604;DHT22;7388;51.078;13.740;2022-07-21T04:50:27;26.60;36.30
14604;DHT22;7388;51.078;13.740;2022-07-21T04:52:54;26.70;36.30
14604;DHT22;7388;51.078;13.740;2022-07-21T04:55:20;26.70;36.50
14604;DHT22;7388;51.078;13.740;2022-07-21T04:57:49;26.80;36.20
14604;DHT22;7388;51.078;13.740;2022-07-21T05:00:17;27.00;36.50
14604;DHT22;7388;51.078;13.740;2022-07-21T05:02:44;27.10;36.50
14604;DHT22;7388;51.078;13.740;2022-07-21T05:05:10;27.20;36.50
14604;DHT22;7388;51.078;13.740;2022-07-21T05:07:36;27.30;36.70
14604;DHT22;7388;51.078;13.740;2022-07-21T05:10:06;27.40;36.90
14604;DHT22;7388;51.078;13.740;2022-07-21T05:12:33;27.50;37.40
14604;DHT22;7388;51.078;13.740;2022-07-21T05:14:58;27.60;36.70
14604;DHT22;7388;51.078;13.740;2022-07-21T05:17:24;27.80;36.80
14604;DHT22;7388;51.078;13.740;2022-07-21T05:19:50;27.80;36.70
14604;DHT22;7388;51.078;13.740;2022-07-21T05:22:19;27.90;36.50
14604;DHT22;7388;51.078;13.740;2022-07-21T05:24:45;28.10;36.70
14604;DHT22;7388;51.078;13.740;2022-07-21T05:27:11;28.20;36.50
14604;DHT22;7388;51.078;13.740;2022-07-21T05:29:37;28.30;36.30
14604;DHT22;7388;51.078;13.740;2022-07-21T05:32:03;28.40;36.00
14604;DHT22;7388;51.078;13.740;2022-07-21T05:34:29;28.50;35.90
14604;DHT22;7388;51.078;13.740;2022-07-21T05:36:55;28.60;35.60
14604;DHT22;7388;51.078;13.740;2022-07-21T05:39:20;28.70;36.40
14604;DHT22;7388;51.078;13.740;2022-07-21T05:41:46;28.80;35.90
14604;DHT22;7388;51.078;13.740;2022-07-21T05:44:12;29.00;36.20
14604;DHT22;7388;51.078;13.740;2022-07-21T05:46:38;29.00;35.70
14604;DHT22;7388;51.078;13.740;2022-07-21T05:49:04;29.20;35.70
14604;DHT22;7388;51.078;13.740;2022-07-21T05:51:30;29.30;35.30
14604;DHT22;7388;51.078;13.740;2022-07-21T05:53:55;29.40;35.10
14604;DHT22;7388;51.078;13.740;2022-07-21T05:56:21;29.50;34.90
14604;DHT22;7388;51.078;13.740;2022-07-21T05:58:47;29.60;34.90
14604;DHT22;7388;51.078;13.740;2022-07-21T06:01:13;29.80;33.60
14604;DHT22;7388;51.078;13.740;2022-07-21T06:03:41;29.80;34.00
14604;DHT22;7388;51.078;13.740;2022-07-21T06:06:08;30.00;34.10
14604;DHT22;7388;51.078;13.740;2022-07-21T06:08:36;30.10;33.90
14604;DHT22;7388;51.078;13.740;2022-07-21T06:11:02;30.20;34.00
14604;DHT22;7388;51.078;13.740;2022-07-21T06:13:28;30.30;33.90
14604;DHT22;7388;51.078;13.740;2022-07-21T06:15:53;30.40;33.70
14604;DHT22;7388;51.078;13.740;2022-07-21T06:18:19;30.50;33.40
14604;DHT22;7388;51.078;13.740;2022-07-21T06:20:45;30.60;32.10
14604;DHT22;7388;51.078;13.740;2022-07-21T06:23:11;30.70;31.90
14604;DHT22;7388;51.078;13.740;2022-07-21T06:25:37;30.70;31.90
14604;DHT22;7388;51.078;13.740;2022-07-21T06:28:03;30.80;32.00
14604;DHT22;7388;51.078;13.740;2022-07-21T06:30:29;30.70;32.30
14604;DHT22;7388;51.078;13.740;2022-07-21T06:32:54;30.80;32.10
14604;DHT22;7388;51.078;13.740;2022-07-21T06:35:20;30.80;32.30
14604;DHT22;7388;51.078;13.740;2022-07-21T06:37:46;30.90;32.40
14604;DHT22;7388;51.078;13.740;2022-07-21T06:40:12;30.90;32.00
14604;DHT22;7388;51.078;13.740;2022-07-21T06:42:38;31.00;32.60
14604;DHT22;7388;51.078;13.740;2022-07-21T06:45:05;31.20;32.00
14604;DHT22;7388;51.078;13.740;2022-07-21T06:47:31;31.30;31.70
14604;DHT22;7388;51.078;13.740;2022-07-21T06:49:56;31.40;31.70
14604;DHT22;7388;51.078;13.740;2022-07-21T06:52:31;31.50;31.90
14604;DHT22;7388;51.078;13.740;2022-07-21T06:54:57;31.70;31.80
14604;DHT22;7388;51.078;13.740;2022-07-21T06:57:23;31.80;28.80
14604;DHT22;7388;51.078;13.740;2022-07-21T06:59:49;31.80;29.00
14604;DHT22;7388;51.078;13.740;2022-07-21T07:02:15;31.80;30.10
14604;DHT22;7388;51.078;13.740;2022-07-21T07:04:41;31.90;30.50
14604;DHT22;7388;51.078;13.740;2022-07-21T07:07:07;31.90;30.40
14604;DHT22;7388;51.078;13.740;2022-07-21T07:09:33;32.00;30.10
14604;DHT22;7388;51.078;13.740;2022-07-21T07:11:58;32.10;30.70
14604;DHT22;7388;51.078;13.740;2022-07-21T07:14:33;32.10;30.50
14604;DHT22;7388;51.078;13.740;2022-07-21T07:17:00;32.20;30.50
14604;DHT22;7388;51.078;13.740;2022-07-21T07:19:27;32.20;29.90
14604;DHT22;7388;51.078;13.740;2022-07-21T07:21:53;32.30;29.30
14604;DHT22;7388;51.078;13.740;2022-07-21T07:24:19;32.40;29.30
14604;DHT22;7388;51.078;13.740;2022-07-21T07:26:45;32.40;29.60
14604;DHT22;7388;51.078;13.740;2022-07-21T07:29:11;32.50;29.50
14604;DHT22;7388;51.078;13.740;2022-07-21T07:31:37;32.60;29.40
14604;DHT22;7388;51.078;13.740;2022-07-21T07:34:03;32.60;29.60
14604;DHT22;7388;51.078;13.740;2022-07-21T07:36:29;32.70;29.60
14604;DHT22;7388;51.078;13.740;2022-07-21T07:38:56;32.80;29.20
14604;DHT22;7388;51.078;13.740;2022-07-21T07:41:24;32.90;28.80
14604;DHT22;7388;51.078;13.740;2022-07-21T07:43:50;33.00;29.20
14604;DHT22;7388;51.078;13.740;2022-07-21T07:46:20;33.00;28.70
14604;DHT22;7388;51.078;13.740;2022-07-21T07:48:46;33.00;28.50
14604;DHT22;7388;51.078;13.740;2022-07-21T07:51:13;33.10;28.00
14604;DHT22;7388;51.078;13.740;2022-07-21T07:53:39;33.10;28.40
14604;DHT22;7388;51.078;13.740;2022-07-21T07:56:07;33.20;28.30
14604;DHT22;7388;51.078;13.740;2022-07-21T07:58:33;33.30;28.80
14604;DHT22;7388;51.078;13.740;2022-07-21T08:00:59;33.40;28.80
14604;DHT22;7388;51.078;13.740;2022-07-21T08:03:47;33.50;28.70
14604;DHT22;7388;51.078;13.740;2022-07-21T08:06:13;33.60;28.30
14604;DHT22;7388;51.078;13.740;2022-07-21T08:08:39;33.70;27.80
14604;DHT22;7388;51.078;13.740;2022-07-21T08:11:05;33.80;28.10
14604;DHT22;7388;51.078;13.740;2022-07-21T08:13:31;32.90;27.70
14604;DHT22;7388;51.078;13.740;2022-07-21T08:15:57;34.10;28.50
14604;DHT22;7388;51.078;13.740;2022-07-21T08:18:22;34.20;28.10
14604;DHT22;7388;51.078;13.740;2022-07-21T08:20:48;34.30;27.40
14604;DHT22;7388;51.078;13.740;2022-07-21T08:23:15;34.30;28.00
14604;DHT22;7388;51.078;13.740;2022-07-21T08:25:41;34.40;27.30
14604;DHT22;7388;51.078;13.740;2022-07-21T08:28:07;34.40;26.20
14604;DHT22;7388;51.078;13.740;2022-07-21T08:30:34;34.40;26.00
14604;DHT22;7388;51.078;13.740;2022-07-21T08:33:00;34.40;26.30
14604;DHT22;7388;51.078;13.740;2022-07-21T08:35:27;34.40;26.00
14604;DHT22;7388;51.078;13.740;2022-07-21T08:37:58;34.50;26.10
14604;DHT22;7388;51.078;13.740;2022-07-21T08:40:29;34.50;26.70
14604;DHT22;7388;51.078;13.740;2022-07-21T08:42:55;34.60;26.00
14604;DHT22;7388;51.078;13.740;2022-07-21T08:45:21;34.70;26.10
14604;DHT22;7388;51.078;13.740;2022-07-21T08:47:55;34.80;26.20
14604;DHT22;7388;51.078;13.740;2022-07-21T08:50:25;34.90;26.30
14604;DHT22;7388;51.078;13.740;2022-07-21T08:52:52;34.90;25.80
14604;DHT22;7388;51.078;13.740;2022-07-21T08:55:18;35.00;26.70
14604;DHT22;7388;51.078;13.740;2022-07-21T08:57:44;35.00;26.20
14604;DHT22;7388;51.078;13.740;2022-07-21T09:00:10;35.10;26.00
14604;DHT22;7388;51.078;13.740;2022-07-21T09:02:37;35.20;25.80
14604;DHT22;7388;51.078;13.740;2022-07-21T09:05:08;35.20;25.70
14604;DHT22;7388;51.078;13.740;2022-07-21T09:07:53;35.20;26.00
14604;DHT22;7388;51.078;13.740;2022-07-21T09:10:29;35.30;26.40
14604;DHT22;7388;51.078;13.740;2022-07-21T09:12:57;35.30;26.20
14604;DHT22;7388;51.078;13.740;2022-07-21T09:15:24;35.30;26.10
14604;DHT22;7388;51.078;13.740;2022-07-21T09:18:23;35.30;25.40
14604;DHT22;7388;51.078;13.740;2022-07-21T09:20:51;35.40;25.50
14604;DHT22;7388;51.078;13.740;2022-07-21T09:23:20;35.50;25.60
14604;DHT22;7388;51.078;13.740;2022-07-21T09:25:52;35.50;25.20
14604;DHT22;7388;51.078;13.740;2022-07-21T09:28:21;35.50;25.20
14604;DHT22;7388;51.078;13.740;2022-07-21T09:30:57;35.60;25.60
14604;DHT22;7388;51.078;13.740;2022-07-21T09:33:32;35.60;25.20
14604;DHT22;7388;51.078;13.740;2022-07-21T09:36:12;35.60;24.90
14604;DHT22;7388;51.078;13.740;2022-07-21T09:38:53;35.70;25.00
14604;DHT22;7388;51.078;13.740;2022-07-21T09:41:25;35.70;24.60
14604;DHT22;7388;51.078;13.740;2022-07-21T09:43:53;35.60;25.40
14604;DHT22;7388;51.078;13.740;2022-07-21T09:48:54;35.50;25.50
14604;DHT22;7388;51.078;13.740;2022-07-21T09:51:31;35.40;25.90
14604;DHT22;7388;51.078;13.740;2022-07-21T09:53:59;35.40;26.70
14604;DHT22;7388;51.078;13.740;2022-07-21T09:56:28;35.40;26.00
14604;DHT22;7388;51.078;13.740;2022-07-21T09:58:55;35.50;26.00
14604;DHT22;7388;51.078;13.740;2022-07-21T10:01:22;35.60;25.80
14604;DHT22;7388;51.078;13.740;2022-07-21T10:03:49;35.80;25.90
14604;DHT22;7388;51.078;13.740;2022-07-21T10:06:17;35.80;24.90
14604;DHT22;7388;51.078;13.740;2022-07-21T10:08:44;36.00;24.40
14604;DHT22;7388;51.078;13.740;2022-07-21T10:11:10;36.00;25.00
14604;DHT22;7388;51.078;13.740;2022-07-21T10:13:39;36.10;24.90
14604;DHT22;7388;51.078;13.740;2022-07-21T10:16:08;36.20;24.40
14604;DHT22;7388;51.078;13.740;2022-07-21T10:18:52;36.20;25.40
14604;DHT22;7388;51.078;13.740;2022-07-21T10:24:34;36.30;24.30
14604;DHT22;7388;51.078;13.740;2022-07-21T10:27:05;36.30;24.80
14604;DHT22;7388;51.078;13.740;2022-07-21T10:29:51;36.20;25.40
14604;DHT22;7388;51.078;13.740;2022-07-21T10:32:23;36.20;25.40
14604;DHT22;7388;51.078;13.740;2022-07-21T10:34:50;36.20;25.20
14604;DHT22;7388;51.078;13.740;2022-07-21T10:45:41;35.90;24.80
14604;DHT22;7388;51.078;13.740;2022-07-21T10:51:14;35.60;25.80
14604;DHT22;7388;51.078;13.740;2022-07-21T10:53:40;35.40;25.50
14604;DHT22;7388;51.078;13.740;2022-07-21T10:56:07;35.30;26.00
14604;DHT22;7388;51.078;13.740;2022-07-21T10:58:42;35.30;25.30
14604;DHT22;7388;51.078;13.740;2022-07-21T11:03:41;34.90;24.70
14604;DHT22;7388;51.078;13.740;2022-07-21T11:06:22;34.80;25.10
14604;DHT22;7388;51.078;13.740;2022-07-21T11:09:24;34.60;25.70
14604;DHT22;7388;51.078;13.740;2022-07-21T11:12:00;34.50;26.70
14604;DHT22;7388;51.078;13.740;2022-07-21T11:14:40;34.50;26.80
14604;DHT22;7388;51.078;13.740;2022-07-21T11:17:24;34.30;27.40
14604;DHT22;7388;51.078;13.740;2022-07-21T11:19:50;34.20;28.00
14604;DHT22;7388;51.078;13.740;2022-07-21T11:22:24;34.20;28.30
14604;DHT22;7388;51.078;13.740;2022-07-21T11:25:05;34.30;28.20
14604;DHT22;7388;51.078;13.740;2022-07-21T11:27:33;34.30;28.00
14604;DHT22;7388;51.078;13.740;2022-07-21T11:30:02;34.30;28.40
14604;DHT22;7388;51.078;13.740;2022-07-21T11:32:28;34.40;28.60
14604;DHT22;7388;51.078;13.740;2022-07-21T11:34:57;34.50;28.70
14604;DHT22;7388;51.078;13.740;2022-07-21T11:37:36;34.50;29.00
14604;DHT22;7388;51.078;13.740;2022-07-21T11:40:18;34.50;28.90
14604;DHT22;7388;51.078;13.740;2022-07-21T11:42:46;34.40;28.30
14604;DHT22;7388;51.078;13.740;2022-07-21T11:45:13;34.40;28.50
14604;DHT22;7388;51.078;13.740;2022-07-21T11:47:40;34.30;28.90
14604;DHT22;7388;51.078;13.740;2022-07-21T11:50:08;34.20;28.60
14604;DHT22;7388;51.078;13.740;2022-07-21T11:52:37;34.10;29.00
14604;DHT22;7388;51.078;13.740;2022-07-21T11:55:05;34.00;29.50
14604;DHT22;7388;51.078;13.740;2022-07-21T11:57:31;33.90;29.10
14604;DHT22;7388;51.078;13.740;2022-07-21T11:59:58;33.90;29.70
14604;DHT22;7388;51.078;13.740;2022-07-21T12:02:26;33.90;29.80
14604;DHT22;7388;51.078;13.740;2022-07-21T12:04:58;34.10;31.10
14604;DHT22;7388;51.078;13.740;2022-07-21T12:07:28;34.30;30.40
14604;DHT22;7388;51.078;13.740;2022-07-21T12:10:04;34.30;29.80
14604;DHT22;7388;51.078;13.740;2022-07-21T12:12:45;34.30;28.70
14604;DHT22;7388;51.078;13.740;2022-07-21T12:17:48;33.80;28.90
14604;DHT22;7388;51.078;13.740;2022-07-21T12:20:18;33.60;29.20
14604;DHT22;7388;51.078;13.740;2022-07-21T12:22:48;33.40;29.30
14604;DHT22;7388;51.078;13.740;2022-07-21T12:25:17;33.20;29.60
14604;DHT22;7388;51.078;13.740;2022-07-21T12:27:45;33.20;30.00
14604;DHT22;7388;51.078;13.740;2022-07-21T12:30:34;33.00;29.90
14604;DHT22;7388;51.078;13.740;2022-07-21T12:33:03;32.90;29.70
14604;DHT22;7388;51.078;13.740;2022-07-21T12:35:29;32.70;30.00
14604;DHT22;7388;51.078;13.740;2022-07-21T12:38:00;32.70;30.50
14604;DHT22;7388;51.078;13.740;2022-07-21T12:40:28;32.60;30.40
14604;DHT22;7388;51.078;13.740;2022-07-21T12:45:45;32.40;31.10
14604;DHT22;7388;51.078;13.740;2022-07-21T12:48:13;31.80;30.80
14604;DHT22;7388;51.078;13.740;2022-07-21T12:50:39;32.20;31.40
14604;DHT22;7388;51.078;13.740;2022-07-21T12:53:09;32.10;31.70
14604;DHT22;7388;51.078;13.740;2022-07-21T12:55:35;32.10;31.80
14604;DHT22;7388;51.078;13.740;2022-07-21T12:58:02;32.10;31.80
14604;DHT22;7388;51.078;13.740;2022-07-21T13:00:28;32.20;31.80
14604;DHT22;7388;51.078;13.740;2022-07-21T13:02:55;32.20;31.60
14604;DHT22;7388;51.078;13.740;2022-07-21T13:05:22;32.20;31.30
14604;DHT22;7388;51.078;13.740;2022-07-21T13:07:48;32.20;31.30
14604;DHT22;7388;51.078;13.740;2022-07-21T13:10:15;32.20;31.40
14604;DHT22;7388;51.078;13.740;2022-07-21T13:12:41;32.20;31.30
14604;DHT22;7388;51.078;13.740;2022-07-21T13:15:07;32.10;31.30
14604;DHT22;7388;51.078;13.740;2022-07-21T13:17:33;32.00;31.40
14604;DHT22;7388;51.078;13.740;2022-07-21T13:19:59;31.90;31.10
14604;DHT22;7388;51.078;13.740;2022-07-21T13:22:25;31.80;31.70
14604;DHT22;7388;51.078;13.740;2022-07-21T13:24:51;31.70;32.10
14604;DHT22;7388;51.078;13.740;2022-07-21T13:27:17;31.70;31.80
14604;DHT22;7388;51.078;13.740;2022-07-21T13:29:42;31.60;31.60
14604;DHT22;7388;51.078;13.740;2022-07-21T13:32:08;31.50;31.90
14604;DHT22;7388;51.078;13.740;2022-07-21T13:34:34;31.50;32.20
14604;DHT22;7388;51.078;13.740;2022-07-21T13:37:00;31.50;32.20
14604;DHT22;7388;51.078;13.740;2022-07-21T13:39:26;31.40;32.70
14604;DHT22;7388;51.078;13.740;2022-07-21T13:41:55;31.40;32.80
14604;DHT22;7388;51.078;13.740;2022-07-21T13:44:22;31.30;32.70
14604;DHT22;7388;51.078;13.740;2022-07-21T13:46:48;31.30;32.50
14604;DHT22;7388;51.078;13.740;2022-07-21T13:49:14;31.20;32.60
14604;DHT22;7388;51.078;13.740;2022-07-21T13:51:40;31.20;33.00
14604;DHT22;7388;51.078;13.740;2022-07-21T13:54:06;31.10;33.80
14604;DHT22;7388;51.078;13.740;2022-07-21T13:56:32;31.10;33.50
14604;DHT22;7388;51.078;13.740;2022-07-21T13:58:58;31.20;34.00
14604;DHT22;7388;51.078;13.740;2022-07-21T14:01:23;31.20;33.90
14604;DHT22;7388;51.078;13.740;2022-07-21T14:03:50;31.20;33.40
14604;DHT22;7388;51.078;13.740;2022-07-21T14:06:17;31.20;33.40
14604;DHT22;7388;51.078;13.740;2022-07-21T14:08:43;31.10;33.50
14604;DHT22;7388;51.078;13.740;2022-07-21T14:11:10;31.00;33.50
14604;DHT22;7388;51.078;13.740;2022-07-21T14:13:37;31.00;33.70
14604;DHT22;7388;51.078;13.740;2022-07-21T14:16:03;31.00;33.70
14604;DHT22;7388;51.078;13.740;2022-07-21T14:18:29;30.90;33.30
14604;DHT22;7388;51.078;13.740;2022-07-21T14:20:55;30.90;33.40
14604;DHT22;7388;51.078;13.740;2022-07-21T14:23:21;30.80;33.70
14604;DHT22;7388;51.078;13.740;2022-07-21T14:25:48;30.80;33.70
14604;DHT22;7388;51.078;13.740;2022-07-21T14:28:15;30.70;33.90
14604;DHT22;7388;51.078;13.740;2022-07-21T14:30:41;30.60;33.90
14604;DHT22;7388;51.078;13.740;2022-07-21T14:33:07;30.60;33.90
14604;DHT22;7388;51.078;13.740;2022-07-21T14:35:33;30.50;33.90
14604;DHT22;7388;51.078;13.740;2022-07-21T14:37:58;30.50;33.90
14604;DHT22;7388;51.078;13.740;2022-07-21T14:40:25;30.50;34.10
14604;DHT22;7388;51.078;13.740;2022-07-21T14:42:51;30.40;34.00
14604;DHT22;7388;51.078;13.740;2022-07-21T14:45:18;30.40;34.00
14604;DHT22;7388;51.078;13.740;2022-07-21T14:47:45;30.40;33.90
14604;DHT22;7388;51.078;13.740;2022-07-21T14:50:14;30.40;34.30
14604;DHT22;7388;51.078;13.740;2022-07-21T14:52:41;30.40;34.70
14604;DHT22;7388;51.078;13.740;2022-07-21T14:55:08;30.30;34.90
14604;DHT22;7388;51.078;13.740;2022-07-21T14:57:34;30.40;35.40
14604;DHT22;7388;51.078;13.740;2022-07-21T15:00:03;30.30;35.30
14604;DHT22;7388;51.078;13.740;2022-07-21T15:02:29;30.30;34.90
14604;DHT22;7388;51.078;13.740;2022-07-21T15:04:54;30.30;35.40
14604;DHT22;7388;51.078;13.740;2022-07-21T15:07:20;30.20;35.30
14604;DHT22;7388;51.078;13.740;2022-07-21T15:09:46;30.20;35.40
14604;DHT22;7388;51.078;13.740;2022-07-21T15:12:12;30.10;35.70
14604;DHT22;7388;51.078;13.740;2022-07-21T15:14:38;30.10;35.50
14604;DHT22;7388;51.078;13.740;2022-07-21T15:17:04;30.10;35.80
14604;DHT22;7388;51.078;13.740;2022-07-21T15:19:30;30.10;36.70
14604;DHT22;7388;51.078;13.740;2022-07-21T15:21:56;30.10;36.90
14604;DHT22;7388;51.078;13.740;2022-07-21T15:24:22;30.00;36.90
14604;DHT22;7388;51.078;13.740;2022-07-21T15:26:48;29.90;36.10
14604;DHT22;7388;51.078;13.740;2022-07-21T15:29:15;29.80;36.30
14604;DHT22;7388;51.078;13.740;2022-07-21T15:31:40;29.70;36.10
14604;DHT22;7388;51.078;13.740;2022-07-21T15:34:07;29.60;36.50
14604;DHT22;7388;51.078;13.740;2022-07-21T15:36:34;29.60;36.80
14604;DHT22;7388;51.078;13.740;2022-07-21T15:38:59;29.60;36.30
14604;DHT22;7388;51.078;13.740;2022-07-21T15:41:26;29.60;36.10
14604;DHT22;7388;51.078;13.740;2022-07-21T15:43:53;29.60;36.20
14604;DHT22;7388;51.078;13.740;2022-07-21T15:46:19;29.60;36.10
14604;DHT22;7388;51.078;13.740;2022-07-21T15:48:45;29.50;36.10
14604;DHT22;7388;51.078;13.740;2022-07-21T15:51:11;29.60;36.70
14604;DHT22;7388;51.078;13.740;2022-07-21T15:53:37;29.50;36.40
14604;DHT22;7388;51.078;13.740;2022-07-21T15:56:04;29.60;36.30
14604;DHT22;7388;51.078;13.740;2022-07-21T15:58:30;29.60;36.10